sensor_id;sensor_type;location;lat;lon;timestamp;pressure;altitude;pressure_sealevel;temperature;humidity
40948;BME280;49382;-25.924;28.194;2022-07-09T00:01:14;85906.87;;;13.29;32.64
40948;BME280;49382;-25.924;28.194;2022-07-09T00:03:40;85910.03;;;13.17;33.11
40948;BME280;49382;-25.924;28.194;2022-07-09T00:06:05;85909.97;;;13.12;33.24
40948;BME280;49382;-25.924;28.194;2022-07-09T00:08:31;85905.77;;;13.16;33.11
40948;BME280;49382;-25.924;28.194;2022-07-09T00:10:56;85907.12;;;13.25;33.50
40948;BME280;49382;-25.924;28.194;2022-07-09T00:13:23;85902.75;;;13.45;33.72
40948;BME280;49382;-25.924;28.194;2022-07-09T00:15:47;85901.94;;;13.54;33.46
40948;BME280;49382;-25.924;28.194;2022-07-09T00:18:13;85900.47;;;13.43;33.36
40948;BME280;49382;-25.924;28.194;2022-07-09T00:20:39;85907.54;;;13.27;33.89
40948;BME280;49382;-25.924;28.194;2022-07-09T00:23:03;85899.81;;;13.27;34.05
40948;BME280;49382;-25.924;28.194;2022-07-09T00:25:29;85900.33;;;13.74;33.59
40948;BME280;49382;-25.924;28.194;2022-07-09T00:27:55;85897.55;;;13.19;33.33
40948;BME280;49382;-25.924;28.194;2022-07-09T00:30:21;85897.31;;;13.64;33.78
40948;BME280;49382;-25.924;28.194;2022-07-09T00:32:46;85902.50;;;13.53;33.74
40948;BME280;49382;-25.924;28.194;2022-07-09T00:35:12;85899.03;;;13.72;33.87
40948;BME280;49382;-25.924;28.194;2022-07-09T00:37:37;85894.51;;;13.24;34.09
40948;BME280;49382;-25.924;28.194;2022-07-09T00:40:03;85897.27;;;13.52;33.31
40948;BME280;49382;-25.924;28.194;2022-07-09T00:42:28;85894.11;;;13.28;33.30
40948;BME280;49382;-25.924;28.194;2022-07-09T00:44:53;85889.81;;;13.68;32.85
40948;BME280;49382;-25.924;28.194;2022-07-09T00:47:19;85890.76;;;13.50;33.16
40948;BME280;49382;-25.924;28.194;2022-07-09T00:49:44;85893.53;;;13.42;32.94
40948;BME280;49382;-25.924;28.194;2022-07-09T00:52:11;85888.78;;;13.04;33.24
40948;BME280;49382;-25.924;28.194;2022-07-09T00:54:35;85888.21;;;13.35;33.06
40948;BME280;49382;-25.924;28.194;2022-07-09T00:57:01;85890.52;;;13.47;32.48
40948;BME280;49382;-25.924;28.194;2022-07-09T00:59:26;85891.71;;;13.48;32.76
40948;BME280;49382;-25.924;28.194;2022-07-09T01:01:52;85895.01;;;13.56;32.85
40948;BME280;49382;-25.924;28.194;2022-07-09T01:04:17;85894.93;;;13.33;32.96
40948;BME280;49382;-25.924;28.194;2022-07-09T01:06:43;85897.48;;;13.76;32.43
40948;BME280;49382;-25.924;28.194;2022-07-09T01:09:09;85899.32;;;13.83;32.32
40948;BME280;49382;-25.924;28.194;2022-07-09T01:11:34;85895.66;;;13.72;32.44
40948;BME280;49382;-25.924;28.194;2022-07-09T01:13:59;85899.55;;;14.03;32.28
40948;BME280;49382;-25.924;28.194;2022-07-09T01:16:31;85898.53;;;13.29;32.10
40948;BME280;49382;-25.924;28.194;2022-07-09T01:18:50;85899.39;;;13.04;33.12
40948;BME280;49382;-25.924;28.194;2022-07-09T01:21:16;85903.12;;;12.98;33.41
40948;BME280;49382;-25.924;28.194;2022-07-09T01:23:42;85897.02;;;13.84;33.55
40948;BME280;49382;-25.924;28.194;2022-07-09T01:26:07;85899.92;;;13.91;33.01
40948;BME280;49382;-25.924;28.194;2022-07-09T01:28:32;85897.26;;;13.50;32.57
40948;BME280;49382;-25.924;28.194;2022-07-09T01:30:57;85897.54;;;13.15;33.13
40948;BME280;49382;-25.924;28.194;2022-07-09T01:33:23;85896.46;;;13.60;32.85
40948;BME280;49382;-25.924;28.194;2022-07-09T01:35:48;85892.13;;;13.18;33.50
40948;BME280;49382;-25.924;28.194;2022-07-09T01:38:14;85895.46;;;13.57;33.25
40948;BME280;49382;-25.924;28.194;2022-07-09T01:40:40;85893.76;;;13.70;32.74
40948;BME280;49382;-25.924;28.194;2022-07-09T01:43:05;85894.42;;;13.32;32.76
40948;BME280;49382;-25.924;28.194;2022-07-09T01:45:31;85893.21;;;13.26;33.37
40948;BME280;49382;-25.924;28.194;2022-07-09T01:47:56;85889.19;;;13.20;33.58
40948;BME280;49382;-25.924;28.194;2022-07-09T01:50:22;85888.15;;;13.57;33.34
40948;BME280;49382;-25.924;28.194;2022-07-09T01:52:47;85881.95;;;13.70;33.50
40948;BME280;49382;-25.924;28.194;2022-07-09T01:55:12;85884.44;;;13.64;33.48
40948;BME280;49382;-25.924;28.194;2022-07-09T01:57:38;85889.24;;;13.31;33.74
40948;BME280;49382;-25.924;28.194;2022-07-09T02:00:05;85886.59;;;13.59;33.69
40948;BME280;49382;-25.924;28.194;2022-07-09T02:02:29;85884.82;;;13.51;33.32
40948;BME280;49382;-25.924;28.194;2022-07-09T02:04:55;85888.01;;;13.56;33.50
40948;BME280;49382;-25.924;28.194;2022-07-09T02:07:20;85886.18;;;13.64;33.66
40948;BME280;49382;-25.924;28.194;2022-07-09T02:09:45;85885.02;;;13.76;33.66
40948;BME280;49382;-25.924;28.194;2022-07-09T02:12:11;85886.93;;;13.78;33.43
40948;BME280;49382;-25.924;28.194;2022-07-09T02:14:36;85885.47;;;13.74;33.00
40948;BME280;49382;-25.924;28.194;2022-07-09T02:17:02;85881.50;;;13.32;33.74
40948;BME280;49382;-25.924;28.194;2022-07-09T02:19:28;85888.75;;;13.45;33.84
40948;BME280;49382;-25.924;28.194;2022-07-09T02:21:53;85883.71;;;13.43;34.05
40948;BME280;49382;-25.924;28.194;2022-07-09T02:24:18;85879.85;;;13.53;34.08
40948;BME280;49382;-25.924;28.194;2022-07-09T02:26:43;85882.60;;;13.62;34.04
40948;BME280;49382;-25.924;28.194;2022-07-09T02:29:09;85880.23;;;14.04;33.96
40948;BME280;49382;-25.924;28.194;2022-07-09T02:31:34;85879.33;;;13.57;34.15
40948;BME280;49382;-25.924;28.194;2022-07-09T02:34:00;85884.94;;;13.77;33.92
40948;BME280;49382;-25.924;28.194;2022-07-09T02:36:26;85883.77;;;13.75;33.90
40948;BME280;49382;-25.924;28.194;2022-07-09T02:38:51;85883.70;;;13.37;34.33
40948;BME280;49382;-25.924;28.194;2022-07-09T02:41:18;85878.31;;;13.19;34.17
40948;BME280;49382;-25.924;28.194;2022-07-09T02:43:42;85882.70;;;12.68;34.80
40948;BME280;49382;-25.924;28.194;2022-07-09T02:46:07;85885.17;;;12.33;34.76
40948;BME280;49382;-25.924;28.194;2022-07-09T02:48:32;85885.04;;;12.51;35.18
40948;BME280;49382;-25.924;28.194;2022-07-09T02:50:58;85883.97;;;12.68;35.24
40948;BME280;49382;-25.924;28.194;2022-07-09T02:53:24;85886.89;;;12.90;34.61
40948;BME280;49382;-25.924;28.194;2022-07-09T02:55:49;85889.22;;;12.80;35.07
40948;BME280;49382;-25.924;28.194;2022-07-09T02:58:15;85892.62;;;12.87;35.16
40948;BME280;49382;-25.924;28.194;2022-07-09T03:00:40;85892.15;;;12.14;34.62
40948;BME280;49382;-25.924;28.194;2022-07-09T03:03:05;85892.32;;;12.09;35.53
40948;BME280;49382;-25.924;28.194;2022-07-09T03:05:30;85896.94;;;12.13;35.73
40948;BME280;49382;-25.924;28.194;2022-07-09T03:07:56;85897.62;;;12.21;35.41
40948;BME280;49382;-25.924;28.194;2022-07-09T03:10:22;85898.58;;;12.37;35.35
40948;BME280;49382;-25.924;28.194;2022-07-09T03:12:47;85900.96;;;12.68;36.67
40948;BME280;49382;-25.924;28.194;2022-07-09T03:15:12;85903.28;;;12.71;36.60
40948;BME280;49382;-25.924;28.194;2022-07-09T03:17:37;85902.95;;;12.81;33.82
40948;BME280;49382;-25.924;28.194;2022-07-09T03:20:03;85903.34;;;12.72;35.41
40948;BME280;49382;-25.924;28.194;2022-07-09T03:22:28;85906.18;;;12.75;36.22
40948;BME280;49382;-25.924;28.194;2022-07-09T03:24:54;85906.62;;;13.09;34.36
40948;BME280;49382;-25.924;28.194;2022-07-09T03:27:19;85905.60;;;12.26;35.38
40948;BME280;49382;-25.924;28.194;2022-07-09T03:29:45;85906.58;;;12.64;36.54
40948;BME280;49382;-25.924;28.194;2022-07-09T03:32:10;85906.95;;;12.57;35.54
40948;BME280;49382;-25.924;28.194;2022-07-09T03:34:36;85905.25;;;12.09;35.31
40948;BME280;49382;-25.924;28.194;2022-07-09T03:37:01;85910.13;;;12.36;36.85
40948;BME280;49382;-25.924;28.194;2022-07-09T03:39:27;85913.75;;;12.86;36.91
40948;BME280;49382;-25.924;28.194;2022-07-09T03:41:53;85906.76;;;12.88;36.75
40948;BME280;49382;-25.924;28.194;2022-07-09T03:44:18;85912.14;;;13.08;36.63
40948;BME280;49382;-25.924;28.194;2022-07-09T03:46:43;85913.66;;;12.89;36.18
40948;BME280;49382;-25.924;28.194;2022-07-09T03:49:09;85911.09;;;13.38;36.16
40948;BME280;49382;-25.924;28.194;2022-07-09T03:51:35;85916.13;;;13.46;36.61
40948;BME280;49382;-25.924;28.194;2022-07-09T03:54:00;85917.53;;;13.14;36.88
40948;BME280;49382;-25.924;28.194;2022-07-09T03:56:25;85920.63;;;13.25;36.72
40948;BME280;49382;-25.924;28.194;2022-07-09T03:58:51;85920.77;;;13.22;36.98
40948;BME280;49382;-25.924;28.194;2022-07-09T04:01:16;85921.67;;;12.99;36.94
40948;BME280;49382;-25.924;28.194;2022-07-09T04:03:42;85925.11;;;12.92;34.95
40948;BME280;49382;-25.924;28.194;2022-07-09T04:06:08;85920.57;;;12.57;36.04
40948;BME280;49382;-25.924;28.194;2022-07-09T04:08:34;85921.81;;;12.93;36.86
40948;BME280;49382;-25.924;28.194;2022-07-09T04:10:59;85925.28;;;12.55;37.11
40948;BME280;49382;-25.924;28.194;2022-07-09T04:13:24;85928.13;;;13.02;36.70
40948;BME280;49382;-25.924;28.194;2022-07-09T04:15:50;85925.81;;;12.67;36.05
40948;BME280;49382;-25.924;28.194;2022-07-09T04:18:15;85927.36;;;12.83;36.84
40948;BME280;49382;-25.924;28.194;2022-07-09T04:20:41;85924.77;;;12.90;36.86
40948;BME280;49382;-25.924;28.194;2022-07-09T04:23:06;85930.35;;;13.08;36.68
40948;BME280;49382;-25.924;28.194;2022-07-09T04:25:31;85933.19;;;13.43;36.33
40948;BME280;49382;-25.924;28.194;2022-07-09T04:27:57;85933.49;;;13.10;36.73
40948;BME280;49382;-25.924;28.194;2022-07-09T04:30:23;85935.05;;;13.05;36.80
40948;BME280;49382;-25.924;28.194;2022-07-09T04:32:48;85934.55;;;12.63;36.87
40948;BME280;49382;-25.924;28.194;2022-07-09T04:35:14;85938.33;;;12.99;36.88
40948;BME280;49382;-25.924;28.194;2022-07-09T04:37:40;85934.06;;;12.89;35.56
40948;BME280;49382;-25.924;28.194;2022-07-09T04:40:06;85933.39;;;12.82;36.78
40948;BME280;49382;-25.924;28.194;2022-07-09T04:42:31;85930.58;;;12.93;36.97
40948;BME280;49382;-25.924;28.194;2022-07-09T04:44:56;85933.96;;;13.02;37.01
40948;BME280;49382;-25.924;28.194;2022-07-09T04:47:22;85935.16;;;13.44;36.80
40948;BME280;49382;-25.924;28.194;2022-07-09T04:49:47;85932.97;;;13.11;36.83
40948;BME280;49382;-25.924;28.194;2022-07-09T04:52:12;85934.32;;;13.22;36.61
40948;BME280;49382;-25.924;28.194;2022-07-09T04:54:37;85934.97;;;12.50;37.05
40948;BME280;49382;-25.924;28.194;2022-07-09T04:57:03;85934.02;;;13.21;37.23
40948;BME280;49382;-25.924;28.194;2022-07-09T04:59:29;85932.30;;;12.89;36.97
40948;BME280;49382;-25.924;28.194;2022-07-09T05:01:54;85936.04;;;13.11;37.07
40948;BME280;49382;-25.924;28.194;2022-07-09T05:04:19;85938.81;;;13.13;36.36
40948;BME280;49382;-25.924;28.194;2022-07-09T05:06:45;85939.52;;;13.09;36.46
40948;BME280;49382;-25.924;28.194;2022-07-09T05:09:10;85944.34;;;12.77;37.76
40948;BME280;49382;-25.924;28.194;2022-07-09T05:11:35;85939.98;;;12.60;36.55
40948;BME280;49382;-25.924;28.194;2022-07-09T05:14:00;85942.02;;;12.85;37.64
40948;BME280;49382;-25.924;28.194;2022-07-09T05:16:26;85940.87;;;12.93;37.84
40948;BME280;49382;-25.924;28.194;2022-07-09T05:18:51;85940.05;;;13.17;37.83
40948;BME280;49382;-25.924;28.194;2022-07-09T05:21:17;85940.37;;;12.85;38.22
40948;BME280;49382;-25.924;28.194;2022-07-09T05:23:42;85939.62;;;13.32;38.05
40948;BME280;49382;-25.924;28.194;2022-07-09T05:26:08;85938.06;;;13.49;37.55
40948;BME280;49382;-25.924;28.194;2022-07-09T05:28:33;85940.12;;;13.38;37.54
40948;BME280;49382;-25.924;28.194;2022-07-09T05:30:58;85941.25;;;13.52;37.35
40948;BME280;49382;-25.924;28.194;2022-07-09T05:33:24;85945.07;;;13.66;37.49
40948;BME280;49382;-25.924;28.194;2022-07-09T05:35:50;85945.79;;;13.62;37.16
40948;BME280;49382;-25.924;28.194;2022-07-09T05:38:15;85945.01;;;13.82;37.18
40948;BME280;49382;-25.924;28.194;2022-07-09T05:40:41;85943.87;;;13.88;35.81
40948;BME280;49382;-25.924;28.194;2022-07-09T05:43:06;85945.80;;;13.14;37.16
40948;BME280;49382;-25.924;28.194;2022-07-09T05:45:32;85947.04;;;13.53;37.89
40948;BME280;49382;-25.924;28.194;2022-07-09T05:47:58;85951.41;;;13.70;37.75
40948;BME280;49382;-25.924;28.194;2022-07-09T05:50:23;85945.30;;;13.77;36.25
40948;BME280;49382;-25.924;28.194;2022-07-09T05:52:49;85947.53;;;13.82;37.37
40948;BME280;49382;-25.924;28.194;2022-07-09T05:55:14;85946.02;;;13.69;37.24
40948;BME280;49382;-25.924;28.194;2022-07-09T05:57:39;85942.25;;;13.76;37.37
40948;BME280;49382;-25.924;28.194;2022-07-09T06:00:06;85950.26;;;14.14;37.03
40948;BME280;49382;-25.924;28.194;2022-07-09T06:02:31;85946.17;;;14.53;36.72
40948;BME280;49382;-25.924;28.194;2022-07-09T06:04:56;85945.58;;;14.51;37.05
40948;BME280;49382;-25.924;28.194;2022-07-09T06:07:22;85946.40;;;14.52;37.29
40948;BME280;49382;-25.924;28.194;2022-07-09T06:09:47;85947.07;;;14.37;36.99
40948;BME280;49382;-25.924;28.194;2022-07-09T06:12:13;85946.36;;;15.14;36.63
40948;BME280;49382;-25.924;28.194;2022-07-09T06:14:38;85948.20;;;14.84;36.57
40948;BME280;49382;-25.924;28.194;2022-07-09T06:17:04;85948.24;;;15.25;36.36
40948;BME280;49382;-25.924;28.194;2022-07-09T06:19:29;85949.68;;;15.33;36.46
40948;BME280;49382;-25.924;28.194;2022-07-09T06:21:55;85945.60;;;15.82;35.92
40948;BME280;49382;-25.924;28.194;2022-07-09T06:24:20;85946.25;;;14.68;35.76
40948;BME280;49382;-25.924;28.194;2022-07-09T06:26:46;85943.24;;;15.75;35.53
40948;BME280;49382;-25.924;28.194;2022-07-09T06:29:12;85951.67;;;16.61;35.19
40948;BME280;49382;-25.924;28.194;2022-07-09T06:31:37;85953.25;;;15.96;35.80
40948;BME280;49382;-25.924;28.194;2022-07-09T06:34:03;85951.53;;;16.48;36.16
40948;BME280;49382;-25.924;28.194;2022-07-09T06:36:29;85952.57;;;16.62;34.69
40948;BME280;49382;-25.924;28.194;2022-07-09T06:38:54;85956.33;;;16.98;34.65
40948;BME280;49382;-25.924;28.194;2022-07-09T06:41:20;85955.37;;;16.95;34.77
40948;BME280;49382;-25.924;28.194;2022-07-09T06:43:45;85959.05;;;16.64;35.10
40948;BME280;49382;-25.924;28.194;2022-07-09T06:46:10;85961.51;;;17.29;33.93
40948;BME280;49382;-25.924;28.194;2022-07-09T06:48:36;85964.27;;;17.40;33.69
40948;BME280;49382;-25.924;28.194;2022-07-09T06:51:02;85967.74;;;17.69;32.98
40948;BME280;49382;-25.924;28.194;2022-07-09T06:53:27;85959.57;;;17.88;32.69
40948;BME280;49382;-25.924;28.194;2022-07-09T06:55:52;85961.55;;;18.37;32.07
40948;BME280;49382;-25.924;28.194;2022-07-09T06:58:18;85959.92;;;18.87;31.88
40948;BME280;49382;-25.924;28.194;2022-07-09T07:00:43;85961.58;;;18.71;31.76
40948;BME280;49382;-25.924;28.194;2022-07-09T07:03:09;85962.61;;;18.99;30.84
40948;BME280;49382;-25.924;28.194;2022-07-09T07:05:34;85961.79;;;19.17;30.70
40948;BME280;49382;-25.924;28.194;2022-07-09T07:08:00;85961.20;;;19.95;29.77
40948;BME280;49382;-25.924;28.194;2022-07-09T07:10:25;85960.29;;;20.15;28.94
40948;BME280;49382;-25.924;28.194;2022-07-09T07:12:51;85960.52;;;20.44;28.89
40948;BME280;49382;-25.924;28.194;2022-07-09T07:15:16;85957.16;;;20.04;29.02
40948;BME280;49382;-25.924;28.194;2022-07-09T07:17:42;85962.97;;;21.25;27.28
40948;BME280;49382;-25.924;28.194;2022-07-09T07:20:08;85960.59;;;20.97;27.91
40948;BME280;49382;-25.924;28.194;2022-07-09T07:22:33;85959.01;;;21.69;26.82
40948;BME280;49382;-25.924;28.194;2022-07-09T07:24:58;85960.01;;;21.55;27.20
40948;BME280;49382;-25.924;28.194;2022-07-09T07:27:24;85963.29;;;22.45;26.96
40948;BME280;49382;-25.924;28.194;2022-07-09T07:29:49;85960.34;;;21.85;26.80
40948;BME280;49382;-25.924;28.194;2022-07-09T07:32:14;85959.11;;;22.35;26.34
40948;BME280;49382;-25.924;28.194;2022-07-09T07:34:40;85963.16;;;22.40;26.23
40948;BME280;49382;-25.924;28.194;2022-07-09T07:37:05;85967.33;;;22.40;26.11
40948;BME280;49382;-25.924;28.194;2022-07-09T07:39:30;85958.89;;;23.23;25.39
40948;BME280;49382;-25.924;28.194;2022-07-09T07:42:14;85961.71;;;23.46;24.97
40948;BME280;49382;-25.924;28.194;2022-07-09T07:44:21;85958.00;;;23.33;25.29
40948;BME280;49382;-25.924;28.194;2022-07-09T07:46:47;85959.66;;;23.50;25.30
40948;BME280;49382;-25.924;28.194;2022-07-09T07:49:12;85955.87;;;23.18;25.06
40948;BME280;49382;-25.924;28.194;2022-07-09T07:51:37;85956.74;;;23.84;24.83
40948;BME280;49382;-25.924;28.194;2022-07-09T07:54:03;85950.68;;;23.70;25.72
40948;BME280;49382;-25.924;28.194;2022-07-09T07:56:28;85949.85;;;24.46;24.22
40948;BME280;49382;-25.924;28.194;2022-07-09T07:58:53;85951.10;;;24.27;24.04
40948;BME280;49382;-25.924;28.194;2022-07-09T08:01:19;85950.99;;;24.34;23.94
40948;BME280;49382;-25.924;28.194;2022-07-09T08:03:44;85951.57;;;24.64;23.16
40948;BME280;49382;-25.924;28.194;2022-07-09T08:06:09;85953.49;;;24.97;23.15
40948;BME280;49382;-25.924;28.194;2022-07-09T08:11:00;85940.53;;;25.17;22.45
40948;BME280;49382;-25.924;28.194;2022-07-09T08:13:26;85941.74;;;25.64;21.98
40948;BME280;49382;-25.924;28.194;2022-07-09T08:15:51;85939.71;;;25.56;22.95
40948;BME280;49382;-25.924;28.194;2022-07-09T08:18:17;85942.86;;;26.33;21.86
40948;BME280;49382;-25.924;28.194;2022-07-09T08:20:43;85937.80;;;25.97;21.64
40948;BME280;49382;-25.924;28.194;2022-07-09T08:23:09;85933.59;;;26.54;20.98
40948;BME280;49382;-25.924;28.194;2022-07-09T08:25:34;85932.50;;;26.49;21.13
40948;BME280;49382;-25.924;28.194;2022-07-09T08:27:59;85938.03;;;26.68;20.84
40948;BME280;49382;-25.924;28.194;2022-07-09T08:30:25;85933.72;;;27.30;20.86
40948;BME280;49382;-25.924;28.194;2022-07-09T08:32:50;85927.76;;;27.23;20.38
40948;BME280;49382;-25.924;28.194;2022-07-09T08:35:15;85926.63;;;27.13;19.90
40948;BME280;49382;-25.924;28.194;2022-07-09T08:37:41;85918.85;;;27.98;19.74
40948;BME280;49382;-25.924;28.194;2022-07-09T08:40:08;85913.53;;;28.21;18.16
40948;BME280;49382;-25.924;28.194;2022-07-09T08:42:32;85915.67;;;28.45;18.41
40948;BME280;49382;-25.924;28.194;2022-07-09T08:44:57;85915.47;;;28.01;17.86
40948;BME280;49382;-25.924;28.194;2022-07-09T08:47:23;85914.94;;;28.53;17.40
40948;BME280;49382;-25.924;28.194;2022-07-09T08:49:49;85910.09;;;29.74;17.16
40948;BME280;49382;-25.924;28.194;2022-07-09T08:52:14;85902.56;;;29.37;17.51
40948;BME280;49382;-25.924;28.194;2022-07-09T08:54:40;85896.78;;;29.03;17.44
40948;BME280;49382;-25.924;28.194;2022-07-09T08:57:06;85895.60;;;29.39;17.29
40948;BME280;49382;-25.924;28.194;2022-07-09T08:59:31;85891.98;;;29.96;16.30
40948;BME280;49382;-25.924;28.194;2022-07-09T09:01:57;85893.48;;;29.73;16.30
40948;BME280;49382;-25.924;28.194;2022-07-09T09:04:23;85888.99;;;30.33;16.16
40948;BME280;49382;-25.924;28.194;2022-07-09T09:06:47;85882.20;;;31.01;15.51
40948;BME280;49382;-25.924;28.194;2022-07-09T09:09:18;85883.41;;;31.20;15.02
40948;BME280;49382;-25.924;28.194;2022-07-09T09:11:39;85877.19;;;30.26;15.83
40948;BME280;49382;-25.924;28.194;2022-07-09T09:14:04;85874.59;;;30.65;15.33
40948;BME280;49382;-25.924;28.194;2022-07-09T09:16:30;85872.02;;;30.82;15.08
40948;BME280;49382;-25.924;28.194;2022-07-09T09:18:56;85869.57;;;30.71;15.32
40948;BME280;49382;-25.924;28.194;2022-07-09T09:21:22;85866.12;;;31.34;14.85
40948;BME280;49382;-25.924;28.194;2022-07-09T09:23:48;85858.54;;;31.22;15.82
40948;BME280;49382;-25.924;28.194;2022-07-09T09:26:13;85850.63;;;29.41;17.65
40948;BME280;49382;-25.924;28.194;2022-07-09T09:31:17;85841.46;;;26.16;21.07
40948;BME280;49382;-25.924;28.194;2022-07-09T09:33:28;85843.71;;;27.53;20.49
40948;BME280;49382;-25.924;28.194;2022-07-09T09:35:54;85839.52;;;27.06;21.21
40948;BME280;49382;-25.924;28.194;2022-07-09T09:38:23;85838.95;;;26.35;20.44
40948;BME280;49382;-25.924;28.194;2022-07-09T09:40:45;85835.05;;;26.11;20.66
40948;BME280;49382;-25.924;28.194;2022-07-09T09:43:11;85832.81;;;25.53;22.31
40948;BME280;49382;-25.924;28.194;2022-07-09T09:45:36;85833.67;;;24.96;22.18
40948;BME280;49382;-25.924;28.194;2022-07-09T09:48:03;85828.78;;;24.92;22.09
40948;BME280;49382;-25.924;28.194;2022-07-09T09:50:28;85829.22;;;24.66;22.77
40948;BME280;49382;-25.924;28.194;2022-07-09T09:52:53;85820.25;;;24.40;22.92
40948;BME280;49382;-25.924;28.194;2022-07-09T09:55:20;85820.55;;;23.85;24.22
40948;BME280;49382;-25.924;28.194;2022-07-09T09:57:45;85816.93;;;24.51;23.66
40948;BME280;49382;-25.924;28.194;2022-07-09T10:00:11;85820.83;;;24.36;23.46
40948;BME280;49382;-25.924;28.194;2022-07-09T10:02:35;85816.56;;;24.30;22.58
40948;BME280;49382;-25.924;28.194;2022-07-09T10:05:00;85815.18;;;23.81;23.20
40948;BME280;49382;-25.924;28.194;2022-07-09T10:07:25;85809.56;;;23.93;23.19
40948;BME280;49382;-25.924;28.194;2022-07-09T10:09:55;85803.54;;;24.60;23.62
40948;BME280;49382;-25.924;28.194;2022-07-09T10:12:25;85799.77;;;24.16;23.07
40948;BME280;49382;-25.924;28.194;2022-07-09T10:14:43;85798.64;;;23.59;23.50
40948;BME280;49382;-25.924;28.194;2022-07-09T10:17:12;85793.51;;;23.52;23.85
40948;BME280;49382;-25.924;28.194;2022-07-09T10:19:33;85785.92;;;22.89;23.82
40948;BME280;49382;-25.924;28.194;2022-07-09T10:22:00;85788.89;;;23.01;24.16
40948;BME280;49382;-25.924;28.194;2022-07-09T10:24:26;85782.28;;;22.83;24.12
40948;BME280;49382;-25.924;28.194;2022-07-09T10:26:49;85776.46;;;22.93;24.07
40948;BME280;49382;-25.924;28.194;2022-07-09T10:29:20;85767.16;;;22.79;23.17
40948;BME280;49382;-25.924;28.194;2022-07-09T10:31:45;85763.94;;;23.09;23.11
40948;BME280;49382;-25.924;28.194;2022-07-09T10:34:08;85755.67;;;22.69;23.23
40948;BME280;49382;-25.924;28.194;2022-07-09T10:36:31;85753.85;;;23.06;22.44
40948;BME280;49382;-25.924;28.194;2022-07-09T10:38:56;85744.04;;;22.60;22.96
40948;BME280;49382;-25.924;28.194;2022-07-09T10:41:23;85737.83;;;22.84;22.56
40948;BME280;49382;-25.924;28.194;2022-07-09T10:43:51;85733.05;;;22.59;23.86
40948;BME280;49382;-25.924;28.194;2022-07-09T10:46:13;85734.24;;;22.64;23.68
